sensor_id;sensor_type;location;lat;lon;timestamp;pressure;altitude;pressure_sealevel;temperature;humidity
50977;BME280;36992;48.200;12.418;2023-04-01T00:01:00;95448.19;;;11.84;45.63
50977;BME280;36992;48.200;12.418;2023-04-01T00:03:29;95448.66;;;11.86;46.00
50977;BME280;36992;48.200;12.418;2023-04-01T00:05:56;95458.53;;;11.82;45.90
50977;BME280;36992;48.200;12.418;2023-04-01T00:08:24;95457.28;;;11.80;45.91
50977;BME280;36992;48.200;12.418;2023-04-01T00:10:51;95457.28;;;11.80;45.93
50977;BME280;36992;48.200;12.418;2023-04-01T00:13:19;95451.91;;;11.80;46.29
50977;BME280;36992;48.200;12.418;2023-04-01T00:15:46;95462.69;;;11.80;46.39
50977;BME280;36992;48.200;12.418;2023-04-01T00:18:13;95454.28;;;11.81;46.67
50977;BME280;36992;48.200;12.418;2023-04-01T00:20:44;95447.41;;;11.84;46.49
50977;BME280;36992;48.200;12.418;2023-04-01T00:23:11;95449.19;;;11.80;46.50
50977;BME280;36992;48.200;12.418;2023-04-01T00:25:38;95457.28;;;11.80;46.51
50977;BME280;36992;48.200;12.418;2023-04-01T00:28:04;95454.28;;;11.81;46.51
50977;BME280;36992;48.200;12.418;2023-04-01T00:30:31;95450.00;;;11.80;46.57
50977;BME280;36992;48.200;12.418;2023-04-01T00:32:57;95448.88;;;11.81;46.57
50977;BME280;36992;48.200;12.418;2023-04-01T00:35:24;95457.97;;;11.77;46.74
50977;BME280;36992;48.200;12.418;2023-04-01T00:37:52;95443.16;;;11.83;46.73
50977;BME280;36992;48.200;12.418;2023-04-01T00:40:25;95442.03;;;11.84;46.73
50977;BME280;36992;48.200;12.418;2023-04-01T00:42:52;95432.34;;;11.83;46.75
50977;BME280;36992;48.200;12.418;2023-04-01T00:45:28;95454.84;;;11.87;46.78
50977;BME280;36992;48.200;12.418;2023-04-01T00:47:56;95441.22;;;11.83;46.74
50977;BME280;36992;48.200;12.418;2023-04-01T00:50:26;95457.09;;;11.85;46.70
50977;BME280;36992;48.200;12.418;2023-04-01T00:52:57;95448.66;;;11.86;46.60
50977;BME280;36992;48.200;12.418;2023-04-01T00:55:26;95459.47;;;11.86;46.45
50977;BME280;36992;48.200;12.418;2023-04-01T00:57:55;95463.63;;;11.84;46.89
50977;BME280;36992;48.200;12.418;2023-04-01T01:00:23;95464.25;;;11.81;46.80
50977;BME280;36992;48.200;12.418;2023-04-01T01:02:51;95462.03;;;11.83;46.85
50977;BME280;36992;48.200;12.418;2023-04-01T01:05:21;95458.88;;;11.81;46.87
50977;BME280;36992;48.200;12.418;2023-04-01T01:07:55;95462.38;;;11.81;46.70
50977;BME280;36992;48.200;12.418;2023-04-01T01:10:26;95463.13;;;11.82;46.73
50977;BME280;36992;48.200;12.418;2023-04-01T01:13:03;95457.41;;;11.83;46.91
50977;BME280;36992;48.200;12.418;2023-04-01T01:15:33;95444.94;;;11.79;46.76
50977;BME280;36992;48.200;12.418;2023-04-01T01:18:06;95462.69;;;11.80;46.88
50977;BME280;36992;48.200;12.418;2023-04-01T01:26:45;95460.44;;;11.82;47.03
50977;BME280;36992;48.200;12.418;2023-04-01T01:29:31;95453.47;;;11.81;46.78
50977;BME280;36992;48.200;12.418;2023-04-01T01:32:06;95446.06;;;11.78;47.05
50977;BME280;36992;48.200;12.418;2023-04-01T01:34:40;95447.16;;;11.77;47.09
50977;BME280;36992;48.200;12.418;2023-04-01T01:37:14;95451.78;;;11.76;47.13
50977;BME280;36992;48.200;12.418;2023-04-01T01:39:43;95437.72;;;11.70;47.11
50977;BME280;36992;48.200;12.418;2023-04-01T01:42:13;95447.03;;;11.73;47.14
50977;BME280;36992;48.200;12.418;2023-04-01T01:44:43;95441.66;;;11.73;47.17
50977;BME280;36992;48.200;12.418;2023-04-01T01:47:11;95443.09;;;11.70;47.35
50977;BME280;36992;48.200;12.418;2023-04-01T01:49:40;95437.34;;;11.72;47.05
50977;BME280;36992;48.200;12.418;2023-04-01T01:52:08;95442.31;;;11.70;47.00
50977;BME280;36992;48.200;12.418;2023-04-01T01:54:46;95433.88;;;11.71;46.97
50977;BME280;36992;48.200;12.418;2023-04-01T01:57:13;95431.19;;;11.71;47.09
50977;BME280;36992;48.200;12.418;2023-04-01T01:59:43;95433.88;;;11.71;46.97
50977;BME280;36992;48.200;12.418;2023-04-01T02:02:13;95427.69;;;11.71;47.19
50977;BME280;36992;48.200;12.418;2023-04-01T02:04:42;95424.66;;;11.72;47.12
50977;BME280;36992;48.200;12.418;2023-04-01T02:07:12;95422.28;;;11.71;46.92
50977;BME280;36992;48.200;12.418;2023-04-01T02:09:43;95426.13;;;11.70;47.00
50977;BME280;36992;48.200;12.418;2023-04-01T02:12:11;95432.31;;;11.70;46.94
50977;BME280;36992;48.200;12.418;2023-04-01T02:14:43;95434.34;;;11.73;46.92
50977;BME280;36992;48.200;12.418;2023-04-01T02:17:14;95433.41;;;11.69;47.12
50977;BME280;36992;48.200;12.418;2023-04-01T02:19:47;95450.06;;;11.71;46.92
50977;BME280;36992;48.200;12.418;2023-04-01T02:22:16;95444.00;;;11.74;47.22
50977;BME280;36992;48.200;12.418;2023-04-01T02:24:45;95438.59;;;11.74;46.96
50977;BME280;36992;48.200;12.418;2023-04-01T02:27:12;95447.69;;;11.70;46.76
50977;BME280;36992;48.200;12.418;2023-04-01T02:29:39;95445.78;;;11.70;47.31
50977;BME280;36992;48.200;12.418;2023-04-01T02:32:06;95446.25;;;11.72;47.26
50977;BME280;36992;48.200;12.418;2023-04-01T02:34:33;95448.94;;;11.72;47.40
50977;BME280;36992;48.200;12.418;2023-04-01T02:37:00;95453.88;;;11.70;47.06
50977;BME280;36992;48.200;12.418;2023-04-01T02:39:27;95459.59;;;11.69;47.27
50977;BME280;36992;48.200;12.418;2023-04-01T02:41:55;95462.44;;;11.72;47.05
50977;BME280;36992;48.200;12.418;2023-04-01T02:44:22;95454.66;;;11.71;47.28
50977;BME280;36992;48.200;12.418;2023-04-01T02:46:48;95457.50;;;11.74;47.25
50977;BME280;36992;48.200;12.418;2023-04-01T02:49:14;95458.16;;;11.71;47.22
50977;BME280;36992;48.200;12.418;2023-04-01T02:51:41;95455.47;;;11.71;47.11
50977;BME280;36992;48.200;12.418;2023-04-01T02:54:07;95461.50;;;11.68;47.22
50977;BME280;36992;48.200;12.418;2023-04-01T02:56:34;95463.06;;;11.69;47.11
50977;BME280;36992;48.200;12.418;2023-04-01T02:59:02;95468.94;;;11.71;47.19
50977;BME280;36992;48.200;12.418;2023-04-01T03:01:28;95466.13;;;11.68;47.06
50977;BME280;36992;48.200;12.418;2023-04-01T03:03:55;95465.78;;;11.69;47.43
50977;BME280;36992;48.200;12.418;2023-04-01T03:06:21;95468.81;;;11.68;47.25
50977;BME280;36992;48.200;12.418;2023-04-01T03:08:47;95473.88;;;11.69;47.51
50977;BME280;36992;48.200;12.418;2023-04-01T03:11:14;95477.69;;;11.68;47.21
50977;BME280;36992;48.200;12.418;2023-04-01T03:13:41;95466.91;;;11.68;47.17
50977;BME280;36992;48.200;12.418;2023-04-01T03:16:08;95480.06;;;11.70;47.17
50977;BME280;36992;48.200;12.418;2023-04-01T03:18:35;95483.75;;;11.65;47.50
50977;BME280;36992;48.200;12.418;2023-04-01T03:21:13;95482.75;;;11.70;47.40
50977;BME280;36992;48.200;12.418;2023-04-01T03:23:39;95496.13;;;11.66;47.47
50977;BME280;36992;48.200;12.418;2023-04-01T03:26:06;95490.28;;;11.64;47.63
50977;BME280;36992;48.200;12.418;2023-04-01T03:28:32;95484.88;;;11.64;47.29
50977;BME280;36992;48.200;12.418;2023-04-01T03:30:59;95483.28;;;11.63;47.23
50977;BME280;36992;48.200;12.418;2023-04-01T03:33:26;95500.25;;;11.64;47.10
50977;BME280;36992;48.200;12.418;2023-04-01T03:35:53;95486.31;;;11.62;47.31
50977;BME280;36992;48.200;12.418;2023-04-01T03:38:19;95502.16;;;11.63;47.27
50977;BME280;36992;48.200;12.418;2023-04-01T03:40:46;95498.25;;;11.60;47.15
50977;BME280;36992;48.200;12.418;2023-04-01T03:43:12;95490.59;;;11.63;47.23
50977;BME280;36992;48.200;12.418;2023-04-01T03:45:43;95493.28;;;11.63;47.13
50977;BME280;36992;48.200;12.418;2023-04-01T03:48:10;95495.53;;;11.60;47.41
50977;BME280;36992;48.200;12.418;2023-04-01T03:50:38;95496.00;;;11.63;47.03
50977;BME280;36992;48.200;12.418;2023-04-01T03:53:05;95490.91;;;11.61;46.92
50977;BME280;36992;48.200;12.418;2023-04-01T03:55:32;95500.59;;;11.62;47.22
50977;BME280;36992;48.200;12.418;2023-04-01T03:57:59;95492.50;;;11.62;47.11
50977;BME280;36992;48.200;12.418;2023-04-01T04:00:27;95498.25;;;11.60;47.10
50977;BME280;36992;48.200;12.418;2023-04-01T04:02:53;95507.91;;;11.62;47.21
50977;BME280;36992;48.200;12.418;2023-04-01T04:05:21;95491.38;;;11.63;47.11
50977;BME280;36992;48.200;12.418;2023-04-01T04:07:48;95502.16;;;11.63;47.10
50977;BME280;36992;48.200;12.418;2023-04-01T04:10:15;95502.16;;;11.63;46.94
50977;BME280;36992;48.200;12.418;2023-04-01T04:12:41;95513.75;;;11.64;46.84
50977;BME280;36992;48.200;12.418;2023-04-01T04:15:09;95508.34;;;11.64;47.04
50977;BME280;36992;48.200;12.418;2023-04-01T04:17:35;95505.97;;;11.62;47.07
50977;BME280;36992;48.200;12.418;2023-04-01T04:20:02;95510.59;;;11.62;46.96
50977;BME280;36992;48.200;12.418;2023-04-01T04:22:29;95515.19;;;11.61;46.78
50977;BME280;36992;48.200;12.418;2023-04-01T04:24:57;95521.38;;;11.62;46.85
50977;BME280;36992;48.200;12.418;2023-04-01T04:27:23;95523.28;;;11.61;46.84
50977;BME280;36992;48.200;12.418;2023-04-01T04:29:50;95528.22;;;11.59;46.76
50977;BME280;36992;48.200;12.418;2023-04-01T04:32:16;95527.44;;;11.58;47.11
50977;BME280;36992;48.200;12.418;2023-04-01T04:34:43;95526.31;;;11.59;47.11
50977;BME280;36992;48.200;12.418;2023-04-01T04:37:09;95529.81;;;11.60;47.08
50977;BME280;36992;48.200;12.418;2023-04-01T04:39:35;95527.09;;;11.60;46.94
50977;BME280;36992;48.200;12.418;2023-04-01T04:42:03;95534.41;;;11.59;46.87
50977;BME280;36992;48.200;12.418;2023-04-01T04:44:30;95536.97;;;11.56;46.80
50977;BME280;36992;48.200;12.418;2023-04-01T04:46:56;95535.84;;;11.57;46.92
50977;BME280;36992;48.200;12.418;2023-04-01T04:49:23;95541.22;;;11.57;46.86
50977;BME280;36992;48.200;12.418;2023-04-01T04:51:49;95545.84;;;11.56;47.15
50977;BME280;36992;48.200;12.418;2023-04-01T04:54:17;95535.06;;;11.56;47.48
50977;BME280;36992;48.200;12.418;2023-04-01T04:56:44;95541.22;;;11.57;47.18
50977;BME280;36992;48.200;12.418;2023-04-01T04:59:11;95542.34;;;11.56;47.01
50977;BME280;36992;48.200;12.418;2023-04-01T05:01:38;95548.88;;;11.55;47.08
50977;BME280;36992;48.200;12.418;2023-04-01T05:04:05;95551.56;;;11.55;47.21
50977;BME280;36992;48.200;12.418;2023-04-01T05:06:31;95556.97;;;11.55;47.27
50977;BME280;36992;48.200;12.418;2023-04-01T05:08:58;95554.44;;;11.50;47.41
50977;BME280;36992;48.200;12.418;2023-04-01T05:11:24;95558.72;;;11.51;47.70
50977;BME280;36992;48.200;12.418;2023-04-01T05:13:51;95547.16;;;11.50;47.63
50977;BME280;36992;48.200;12.418;2023-04-01T05:16:20;95548.09;;;11.54;47.63
50977;BME280;36992;48.200;12.418;2023-04-01T05:18:47;95553.31;;;11.51;47.63
50977;BME280;36992;48.200;12.418;2023-04-01T05:21:14;95549.53;;;11.52;47.68
50977;BME280;36992;48.200;12.418;2023-04-01T05:23:41;95550.31;;;11.52;47.61
50977;BME280;36992;48.200;12.418;2023-04-01T05:26:10;95552.38;;;11.55;47.51
50977;BME280;36992;48.200;12.418;2023-04-01T05:28:37;95554.13;;;11.51;47.63
50977;BME280;36992;48.200;12.418;2023-04-01T05:31:05;95561.75;;;11.49;47.50
50977;BME280;36992;48.200;12.418;2023-04-01T05:33:33;95567.63;;;11.51;47.37
50977;BME280;36992;48.200;12.418;2023-04-01T05:36:06;95559.53;;;11.51;47.39
50977;BME280;36992;48.200;12.418;2023-04-01T05:38:33;95559.38;;;11.47;47.41
50977;BME280;36992;48.200;12.418;2023-04-01T05:40:59;95551.63;;;11.46;47.67
50977;BME280;36992;48.200;12.418;2023-04-01T05:43:26;95556.22;;;11.45;47.77
50977;BME280;36992;48.200;12.418;2023-04-01T05:45:53;95550.03;;;11.45;47.65
50977;BME280;36992;48.200;12.418;2023-04-01T05:48:19;95560.03;;;11.44;47.74
50977;BME280;36992;48.200;12.418;2023-04-01T05:50:47;95556.69;;;11.47;47.70
50977;BME280;36992;48.200;12.418;2023-04-01T05:53:13;95555.13;;;11.46;47.87
50977;BME280;36992;48.200;12.418;2023-04-01T05:55:40;95559.69;;;11.46;47.89
50977;BME280;36992;48.200;12.418;2023-04-01T05:58:06;95560.50;;;11.46;47.85
50977;BME280;36992;48.200;12.418;2023-04-01T06:00:33;95563.97;;;11.47;47.62
50977;BME280;36992;48.200;12.418;2023-04-01T06:02:59;95565.59;;;11.48;47.82
50977;BME280;36992;48.200;12.418;2023-04-01T06:05:28;95570.16;;;11.47;47.59
50977;BME280;36992;48.200;12.418;2023-04-01T06:07:59;95564.13;;;11.51;47.77
50977;BME280;36992;48.200;12.418;2023-04-01T06:10:37;95569.19;;;11.52;47.61
50977;BME280;36992;48.200;12.418;2023-04-01T06:13:10;95568.41;;;11.52;47.70
50977;BME280;36992;48.200;12.418;2023-04-01T06:15:47;95568.88;;;11.54;48.07
50977;BME280;36992;48.200;12.418;2023-04-01T06:18:48;95561.22;;;11.56;47.45
50977;BME280;36992;48.200;12.418;2023-04-01T06:21:30;95564.41;;;11.58;47.52
50977;BME280;36992;48.200;12.418;2023-04-01T06:24:12;95561.72;;;11.58;47.49
50977;BME280;36992;48.200;12.418;2023-04-01T06:26:48;95564.88;;;11.60;47.37
50977;BME280;36992;48.200;12.418;2023-04-01T06:29:39;95572.16;;;11.59;47.35
50977;BME280;36992;48.200;12.418;2023-04-01T06:32:20;95560.72;;;11.63;47.37
50977;BME280;36992;48.200;12.418;2023-04-01T06:35:02;95586.25;;;11.65;47.26
50977;BME280;36992;48.200;12.418;2023-04-01T06:37:54;95572.44;;;11.67;47.23
50977;BME280;36992;48.200;12.418;2023-04-01T06:40:48;95568.78;;;11.71;47.18
50977;BME280;36992;48.200;12.418;2023-04-01T06:43:22;95576.84;;;11.71;47.12
50977;BME280;36992;48.200;12.418;2023-04-01T06:45:55;95577.31;;;11.73;47.33
50977;BME280;36992;48.200;12.418;2023-04-01T06:48:38;95574.09;;;11.80;47.29
50977;BME280;36992;48.200;12.418;2023-04-01T06:51:17;95568.84;;;11.84;47.07
50977;BME280;36992;48.200;12.418;2023-04-01T06:53:50;95565.97;;;11.89;46.63
50977;BME280;36992;48.200;12.418;2023-04-01T06:56:25;95566.84;;;11.93;46.60
50977;BME280;36992;48.200;12.418;2023-04-01T06:58:57;95565.09;;;11.97;46.08
50977;BME280;36992;48.200;12.418;2023-04-01T07:01:28;95566.03;;;12.01;46.54
50977;BME280;36992;48.200;12.418;2023-04-01T07:03:59;95555.84;;;12.07;46.53
50977;BME280;36992;48.200;12.418;2023-04-01T07:06:30;95552.47;;;12.10;45.96
50977;BME280;36992;48.200;12.418;2023-04-01T07:08:59;95552.94;;;12.12;45.93
50977;BME280;36992;48.200;12.418;2023-04-01T07:11:32;95550.81;;;12.18;45.76
50977;BME280;36992;48.200;12.418;2023-04-01T07:14:02;95568.59;;;12.19;46.03
50977;BME280;36992;48.200;12.418;2023-04-01T07:16:31;95558.28;;;12.21;45.76
50977;BME280;36992;48.200;12.418;2023-04-01T07:19:02;95549.97;;;12.26;45.42
50977;BME280;36992;48.200;12.418;2023-04-01T07:21:35;95555.38;;;12.26;45.10
50977;BME280;36992;48.200;12.418;2023-04-01T07:24:09;95558.53;;;12.28;45.40
50977;BME280;36992;48.200;12.418;2023-04-01T07:26:39;95564.69;;;12.29;45.14
50977;BME280;36992;48.200;12.418;2023-04-01T07:29:08;95559.28;;;12.29;44.72
50977;BME280;36992;48.200;12.418;2023-04-01T07:31:49;95561.78;;;12.34;44.43
50977;BME280;36992;48.200;12.418;2023-04-01T07:34:24;95564.97;;;12.36;44.59
50977;BME280;36992;48.200;12.418;2023-04-01T07:36:55;95562.59;;;12.35;44.00
50977;BME280;36992;48.200;12.418;2023-04-01T07:39:33;95561.91;;;12.38;44.26
50977;BME280;36992;48.200;12.418;2023-04-01T07:42:09;95569.03;;;12.43;44.75
50977;BME280;36992;48.200;12.418;2023-04-01T07:44:42;95563.75;;;12.46;44.63
50977;BME280;36992;48.200;12.418;2023-04-01T07:47:22;95566.91;;;12.48;44.61
50977;BME280;36992;48.200;12.418;2023-04-01T07:50:02;95559.94;;;12.47;44.17
50977;BME280;36992;48.200;12.418;2023-04-01T07:52:36;95581.34;;;12.52;44.06
50977;BME280;36992;48.200;12.418;2023-04-01T07:55:09;95574.81;;;12.53;43.24
50977;BME280;36992;48.200;12.418;2023-04-01T07:57:43;95574.25;;;12.60;43.87
50977;BME280;36992;48.200;12.418;2023-04-01T08:00:19;95595.22;;;12.63;43.31
50977;BME280;36992;48.200;12.418;2023-04-01T08:03:24;95575.31;;;12.68;43.61
50977;BME280;36992;48.200;12.418;2023-04-01T08:05:59;95575.31;;;12.68;43.25
50977;BME280;36992;48.200;12.418;2023-04-01T08:08:34;95573.53;;;12.72;43.34
50977;BME280;36992;48.200;12.418;2023-04-01T08:11:04;95581.66;;;12.85;44.07
50977;BME280;36992;48.200;12.418;2023-04-01T08:13:39;95583.44;;;12.80;42.88
50977;BME280;36992;48.200;12.418;2023-04-01T08:16:13;95585.50;;;12.84;43.60
50977;BME280;36992;48.200;12.418;2023-04-01T08:18:47;95578.97;;;12.85;42.98
50977;BME280;36992;48.200;12.418;2023-04-01T08:21:22;95579.06;;;12.88;43.08
50977;BME280;36992;48.200;12.418;2023-04-01T08:23:51;95561.41;;;12.91;42.38
50977;BME280;36992;48.200;12.418;2023-04-01T08:26:26;95568.50;;;12.95;43.04
50977;BME280;36992;48.200;12.418;2023-04-01T08:28:59;95557.03;;;12.99;43.01
50977;BME280;36992;48.200;12.418;2023-04-01T08:31:30;95569.53;;;13.03;42.56
50977;BME280;36992;48.200;12.418;2023-04-01T08:34:00;95594.63;;;13.04;41.57
50977;BME280;36992;48.200;12.418;2023-04-01T08:36:32;95566.63;;;13.08;42.34
50977;BME280;36992;48.200;12.418;2023-04-01T08:39:05;95569.75;;;13.11;41.96
50977;BME280;36992;48.200;12.418;2023-04-01T08:41:46;95582.16;;;13.12;41.24
50977;BME280;36992;48.200;12.418;2023-04-01T08:44:32;95570.31;;;13.16;42.16
50977;BME280;36992;48.200;12.418;2023-04-01T08:47:13;95553.75;;;13.18;42.23
50977;BME280;36992;48.200;12.418;2023-04-01T08:50:22;95553.22;;;13.25;42.45
50977;BME280;36992;48.200;12.418;2023-04-01T08:52:57;95554.34;;;13.24;41.61
50977;BME280;36992;48.200;12.418;2023-04-01T08:55:34;95554.47;;;13.27;41.53
50977;BME280;36992;48.200;12.418;2023-04-01T08:58:27;95552.63;;;13.31;42.31
50977;BME280;36992;48.200;12.418;2023-04-01T09:01:09;95548.78;;;13.32;41.80
50977;BME280;36992;48.200;12.418;2023-04-01T09:04:09;95546.66;;;13.38;42.44
50977;BME280;36992;48.200;12.418;2023-04-01T09:06:50;95563.22;;;13.36;41.17
50977;BME280;36992;48.200;12.418;2023-04-01T09:12:29;95553.31;;;13.41;41.38
50977;BME280;36992;48.200;12.418;2023-04-01T09:21:27;95564.38;;;13.48;41.58
50977;BME280;36992;48.200;12.418;2023-04-01T09:24:21;95551.78;;;13.52;41.54
50977;BME280;36992;48.200;12.418;2023-04-01T09:27:03;95551.88;;;13.56;41.90
50977;BME280;36992;48.200;12.418;2023-04-01T09:29:46;95545.00;;;13.58;41.62
50977;BME280;36992;48.200;12.418;2023-04-01T09:32:38;95549.06;;;13.65;41.61
50977;BME280;36992;48.200;12.418;2023-04-01T09:35:20;95542.28;;;13.71;41.52
50977;BME280;36992;48.200;12.418;2023-04-01T09:37:54;95546.31;;;13.77;41.04
50977;BME280;36992;48.200;12.418;2023-04-01T09:40:33;95533.66;;;13.81;41.10
50977;BME280;36992;48.200;12.418;2023-04-01T09:43:15;95541.22;;;13.88;41.37
50977;BME280;36992;48.200;12.418;2023-04-01T09:45:52;95533.63;;;13.94;41.04
50977;BME280;36992;48.200;12.418;2023-04-01T09:48:43;95537.44;;;14.05;41.63
50977;BME280;36992;48.200;12.418;2023-04-01T09:51:24;95523.66;;;14.10;41.39
50977;BME280;36992;48.200;12.418;2023-04-01T09:54:04;95527.28;;;14.14;40.46
50977;BME280;36992;48.200;12.418;2023-04-01T09:57:07;95536.03;;;14.24;40.60
50977;BME280;36992;48.200;12.418;2023-04-01T10:03:10;95515.00;;;14.33;40.14
50977;BME280;36992;48.200;12.418;2023-04-01T10:06:18;95526.47;;;14.42;40.57
50977;BME280;36992;48.200;12.418;2023-04-01T10:21:05;95512.66;;;14.76;38.49
50977;BME280;36992;48.200;12.418;2023-04-01T10:26:43;95518.66;;;14.86;39.14
50977;BME280;36992;48.200;12.418;2023-04-01T10:29:46;95509.06;;;14.88;38.64
50977;BME280;36992;48.200;12.418;2023-04-01T10:38:58;95504.34;;;14.85;38.91
50977;BME280;36992;48.200;12.418;2023-04-01T10:44:53;95486.06;;;14.82;38.68
50977;BME280;36992;48.200;12.418;2023-04-01T10:50:54;95490.38;;;14.83;38.60
50977;BME280;36992;48.200;12.418;2023-04-01T10:53:36;95484.50;;;14.81;38.17
50977;BME280;36992;48.200;12.418;2023-04-01T10:56:36;95484.66;;;14.88;39.06
50977;BME280;36992;48.200;12.418;2023-04-01T10:59:32;95484.22;;;14.86;38.59
50977;BME280;36992;48.200;12.418;2023-04-01T11:05:48;95472.69;;;14.89;39.16
50977;BME280;36992;48.200;12.418;2023-04-01T11:11:47;95470.50;;;14.95;39.12
50977;BME280;36992;48.200;12.418;2023-04-01T11:14:36;95469.28;;;14.92;38.96
50977;BME280;36992;48.200;12.418;2023-04-01T11:20:38;95478.97;;;14.93;39.09
50977;BME280;36992;48.200;12.418;2023-04-01T11:26:14;95479.53;;;14.83;37.64
50977;BME280;36992;48.200;12.418;2023-04-01T11:29:04;95486.50;;;14.84;38.41
50977;BME280;36992;48.200;12.418;2023-04-01T11:31:44;95489.91;;;14.81;38.70
50977;BME280;36992;48.200;12.418;2023-04-01T11:34:29;95490.38;;;14.83;39.23
50977;BME280;36992;48.200;12.418;2023-04-01T11:37:06;95500.41;;;14.82;39.37
50977;BME280;36992;48.200;12.418;2023-04-01T11:39:39;95489.41;;;14.75;39.53
50977;BME280;36992;48.200;12.418;2023-04-01T11:42:17;95495.59;;;14.76;40.10
50977;BME280;36992;48.200;12.418;2023-04-01T11:44:53;95501.69;;;14.73;39.87
50977;BME280;36992;48.200;12.418;2023-04-01T11:47:44;95500.13;;;14.72;40.13
50977;BME280;36992;48.200;12.418;2023-04-01T11:50:20;95492.75;;;14.72;40.92
50977;BME280;36992;48.200;12.418;2023-04-01T11:53:02;95506.31;;;14.72;40.61
50977;BME280;36992;48.200;12.418;2023-04-01T11:55:42;95510.97;;;14.72;41.57
50977;BME280;36992;48.200;12.418;2023-04-01T11:58:34;95513.22;;;14.69;41.22
50977;BME280;36992;48.200;12.418;2023-04-01T12:01:15;95511.56;;;14.65;41.32
50977;BME280;36992;48.200;12.418;2023-04-01T12:03:59;95518.13;;;14.64;41.40
50977;BME280;36992;48.200;12.418;2023-04-01T12:06:34;95518.38;;;14.59;41.75
50977;BME280;36992;48.200;12.418;2023-04-01T12:09:11;95523.34;;;14.56;41.59
50977;BME280;36992;48.200;12.418;2023-04-01T12:11:45;95524.41;;;14.52;41.29
50977;BME280;36992;48.200;12.418;2023-04-01T12:14:20;95530.84;;;14.47;41.18
50977;BME280;36992;48.200;12.418;2023-04-01T12:16:57;95515.38;;;14.48;41.97
50977;BME280;36992;48.200;12.418;2023-04-01T12:19:33;95531.88;;;14.42;41.66
50977;BME280;36992;48.200;12.418;2023-04-01T12:22:24;95528.84;;;14.44;40.88
50977;BME280;36992;48.200;12.418;2023-04-01T12:25:00;95535.53;;;14.34;39.90
50977;BME280;36992;48.200;12.418;2023-04-01T12:27:40;95525.94;;;14.37;40.68
50977;BME280;36992;48.200;12.418;2023-04-01T12:30:26;95533.25;;;14.36;40.79
50977;BME280;36992;48.200;12.418;2023-04-01T12:33:10;95537.34;;;14.30;41.52
50977;BME280;36992;48.200;12.418;2023-04-01T12:35:53;95532.63;;;14.27;41.20
50977;BME280;36992;48.200;12.418;2023-04-01T12:38:30;95545.38;;;14.26;41.41
50977;BME280;36992;48.200;12.418;2023-04-01T12:41:08;95552.28;;;14.24;41.56
50977;BME280;36992;48.200;12.418;2023-04-01T12:43:59;95561.53;;;14.23;41.88
50977;BME280;36992;48.200;12.418;2023-04-01T12:46:41;95566.06;;;14.19;42.97
50977;BME280;36992;48.200;12.418;2023-04-01T12:49:35;95582.31;;;14.19;43.91
50977;BME280;36992;48.200;12.418;2023-04-01T12:52:09;95580.53;;;14.10;44.44
50977;BME280;36992;48.200;12.418;2023-04-01T12:57:49;95572.53;;;14.01;45.12
50977;BME280;36992;48.200;12.418;2023-04-01T13:00:34;95601.78;;;13.96;45.79
50977;BME280;36992;48.200;12.418;2023-04-01T13:03:19;95576.94;;;13.94;44.72
50977;BME280;36992;48.200;12.418;2023-04-01T13:06:25;95576.94;;;13.94;44.61
50977;BME280;36992;48.200;12.418;2023-04-01T13:09:00;95580.59;;;13.85;45.62
50977;BME280;36992;48.200;12.418;2023-04-01T13:11:37;95574.28;;;13.81;46.16
50977;BME280;36992;48.200;12.418;2023-04-01T13:14:37;95585.91;;;13.82;45.38
50977;BME280;36992;48.200;12.418;2023-04-01T13:17:15;95599.09;;;13.71;47.22
50977;BME280;36992;48.200;12.418;2023-04-01T13:19:49;95580.06;;;13.67;47.08
50977;BME280;36992;48.200;12.418;2023-04-01T13:22:25;95588.50;;;13.66;47.05
50977;BME280;36992;48.200;12.418;2023-04-01T13:25:00;95596.75;;;13.57;47.28
50977;BME280;36992;48.200;12.418;2023-04-01T13:27:34;95586.69;;;13.57;46.33
50977;BME280;36992;48.200;12.418;2023-04-01T13:30:21;95594.38;;;13.55;46.69
50977;BME280;36992;48.200;12.418;2023-04-01T13:32:52;95600.00;;;13.62;45.45
50977;BME280;36992;48.200;12.418;2023-04-01T13:35:34;95584.56;;;13.51;47.38
50977;BME280;36992;48.200;12.418;2023-04-01T13:38:32;95608.81;;;13.47;47.61
50977;BME280;36992;48.200;12.418;2023-04-01T13:41:11;95598.97;;;13.42;47.57
50977;BME280;36992;48.200;12.418;2023-04-01T13:43:48;95603.16;;;13.40;49.30
50977;BME280;36992;48.200;12.418;2023-04-01T13:46:39;95601.53;;;13.39;48.66
50977;BME280;36992;48.200;12.418;2023-04-01T13:49:20;95601.09;;;13.36;48.65
50977;BME280;36992;48.200;12.418;2023-04-01T13:54:58;95594.78;;;13.32;48.84
50977;BME280;36992;48.200;12.418;2023-04-01T13:57:42;95598.28;;;13.33;49.12
50977;BME280;36992;48.200;12.418;2023-04-01T14:00:20;95597.84;;;13.31;49.24
50977;BME280;36992;48.200;12.418;2023-04-01T14:03:26;95601.31;;;13.31;49.35
50977;BME280;36992;48.200;12.418;2023-04-01T14:06:11;95607.75;;;13.27;50.00
50977;BME280;36992;48.200;12.418;2023-04-01T14:11:50;95594.91;;;13.24;49.68
50977;BME280;36992;48.200;12.418;2023-04-01T14:14:26;95600.19;;;13.20;49.89
50977;BME280;36992;48.200;12.418;2023-04-01T14:17:02;95593.19;;;13.19;50.21
50977;BME280;36992;48.200;12.418;2023-04-01T14:19:46;95595.78;;;13.15;49.96
50977;BME280;36992;48.200;12.418;2023-04-01T14:22:23;95599.94;;;13.13;50.46
50977;BME280;36992;48.200;12.418;2023-04-01T14:25:03;95608.75;;;13.09;50.76
50977;BME280;36992;48.200;12.418;2023-04-01T14:27:46;95610.63;;;13.09;50.86
50977;BME280;36992;48.200;12.418;2023-04-01T14:30:27;95607.16;;;13.08;50.59
50977;BME280;36992;48.200;12.418;2023-04-01T14:33:06;95603.53;;;13.04;51.30
50977;BME280;36992;48.200;12.418;2023-04-01T14:35:46;95606.25;;;13.04;51.10
50977;BME280;36992;48.200;12.418;2023-04-01T14:38:27;95602.28;;;13.02;51.33